Time;durP1;ratioP1;P1;durP2;ratioP2;P2;SDS_P1;SDS_P2;PMS_P1;PMS_P2;Temp;Humidity;BMP_temperature;BMP_pressure;BME280_temperature;BME280_humidity;BME280_pressure;Samples;Min_cycle;Max_cycle;Signal;HPM_P1;HPM_P2
2022/08/16 00:00:06;;;;;;;18.30;16.40;;;;;;;20.15;100.00;165840.00;4992149;28;20047;-61
2022/08/16 00:02:32;;;;;;;22.35;16.23;;;;;;;20.12;100.00;165831.88;4993423;28;20028;-61
2022/08/16 00:04:57;;;;;;;18.30;16.33;;;;;;;20.10;100.00;165827.84;4991345;28;20049;-61
2022/08/16 00:07:23;;;;;;;17.20;15.50;;;;;;;20.10;100.00;165826.44;4992973;28;20034;-61
2022/08/16 00:09:48;;;;;;;22.80;15.95;;;;;;;20.07;100.00;165818.28;4992197;28;20038;-60
2022/08/16 00:12:14;;;;;;;16.48;14.85;;;;;;;20.05;100.00;165812.88;4993011;28;20034;-60
2022/08/16 00:14:39;;;;;;;16.83;15.23;;;;;;;20.01;100.00;165802.00;4991337;28;20585;-60
2022/08/16 00:17:04;;;;;;;20.60;15.45;;;;;;;19.92;100.00;165778.94;4993280;28;20026;-60
2022/08/16 00:19:32;;;;;;;19.67;16.85;;;;;;;19.92;100.00;165778.94;4991350;28;20061;-61
2022/08/16 00:21:58;;;;;;;17.23;15.50;;;;;;;19.88;100.00;165769.44;4992994;28;20057;-61
2022/08/16 00:24:25;;;;;;;19.00;16.00;;;;;;;19.88;100.00;165769.44;4991399;28;20042;-61
2022/08/16 00:26:51;;;;;;;20.20;15.75;;;;;;;19.88;100.00;165769.44;4993000;28;20022;-61
2022/08/16 00:29:17;;;;;;;16.02;14.50;;;;;;;19.88;100.00;165769.44;4991498;28;20046;-61
2022/08/16 00:31:45;;;;;;;17.15;13.65;;;;;;;19.88;100.00;165769.44;4992783;28;20022;-61
2022/08/16 00:34:11;;;;;;;15.23;13.65;;;;;;;19.88;100.00;165769.44;4990946;28;20022;-60
2022/08/16 00:36:36;;;;;;;14.75;12.88;;;;;;;19.88;100.00;165769.44;4992172;28;20030;-60
2022/08/16 00:39:01;;;;;;;15.30;13.27;;;;;;;19.88;100.00;165769.44;4991144;28;20033;-60
2022/08/16 00:41:29;;;;;;;16.15;14.35;;;;;;;19.88;100.00;165769.44;4992177;28;20041;-60
2022/08/16 00:43:54;;;;;;;14.77;13.00;;;;;;;19.63;100.00;165702.91;4991765;28;20056;-60
2022/08/16 00:46:28;;;;;;;24.80;16.88;;;;;;;19.62;100.00;165701.53;5012043;28;20104;-60
2022/08/16 00:48:53;;;;;;;16.65;14.80;;;;;;;19.63;100.00;165704.25;5011935;28;20037;-60
2022/08/16 00:51:21;;;;;;;20.25;13.90;;;;;;;19.63;100.00;165704.25;5011101;28;20525;-60
2022/08/16 00:53:48;;;;;;;17.17;14.93;;;;;;;19.62;100.00;165701.53;5008958;28;20037;-59
2022/08/16 00:56:17;;;;;;;22.02;14.43;;;;;;;19.62;100.00;165701.53;4990507;28;20046;-60
2022/08/16 00:58:46;;;;;;;16.80;13.93;;;;;;;19.58;100.00;165689.34;4992235;28;20022;-59
2022/08/16 01:01:14;;;;;;;15.13;13.57;;;;;;;19.55;100.00;165682.53;4991046;28;20065;-59
2022/08/16 01:03:43;;;;;;;15.60;13.77;;;;;;;19.31;100.00;165620.16;4991804;28;20947;-60
2022/08/16 01:06:10;;;;;;;17.45;14.07;;;;;;;19.44;100.00;165652.72;4990895;28;20042;-59
2022/08/16 01:08:36;;;;;;;17.77;15.27;;;;;;;19.42;100.00;165647.25;4992268;28;20018;-59
2022/08/16 01:11:03;;;;;;;16.95;14.98;;;;;;;19.34;100.00;165628.28;4990148;28;20121;-59
2022/08/16 01:13:32;;;;;;;17.75;16.00;;;;;;;19.30;100.00;165617.44;4991651;28;20033;-59
2022/08/16 01:16:02;;;;;;;18.65;15.65;;;;;;;19.24;100.00;165601.16;4990678;28;20042;-59
2022/08/16 01:18:32;;;;;;;23.00;16.08;;;;;;;19.18;100.00;165584.84;4991691;28;20032;-59
2022/08/16 01:21:09;;;;;;;17.10;15.45;;;;;;;19.12;100.00;165568.59;4991317;28;20050;-59
2022/08/16 01:23:55;;;;;;;17.55;14.15;;;;;;;19.14;100.00;165574.03;4991890;28;20022;-59
2022/08/16 01:26:23;;;;;;;18.70;16.70;;;;;;;19.08;100.00;165557.75;4989821;28;20445;-59
2022/08/16 01:28:48;;;;;;;19.75;17.75;;;;;;;19.07;100.00;165555.03;4991932;28;20390;-59
2022/08/16 01:31:17;;;;;;;20.70;18.45;;;;;;;19.07;100.00;165555.03;4990150;28;20047;-59
2022/08/16 01:33:43;;;;;;;19.02;16.80;;;;;;;19.10;100.00;165563.19;4991102;28;20422;-59
2022/08/16 01:36:08;;;;;;;23.17;19.48;;;;;;;19.12;100.00;165568.59;4990382;28;20072;-59
2022/08/16 01:38:36;;;;;;;25.77;17.23;;;;;;;19.13;100.00;165571.31;4991680;28;20030;-60
2022/08/16 01:41:07;;;;;;;22.90;18.13;;;;;;;19.13;100.00;165572.69;4990075;28;20042;-60
2022/08/16 01:43:35;;;;;;;22.20;20.02;;;;;;;19.14;100.00;165574.03;4991671;28;20586;-60
2022/08/16 01:46:04;;;;;;;31.30;18.88;;;;;;;19.11;100.00;165565.84;4989929;28;20125;-60
2022/08/16 01:48:31;;;;;;;26.42;18.20;;;;;;;19.10;100.00;165563.19;4991117;28;20054;-60
2022/08/16 01:50:58;;;;;;;26.45;20.38;;;;;;;19.07;100.00;165556.38;4990258;28;20043;-60
2022/08/16 01:53:25;;;;;;;26.40;19.00;;;;;;;19.01;100.00;165541.47;4991129;28;20113;-59
2022/08/16 01:55:51;;;;;;;24.30;20.05;;;;;;;18.95;100.00;165525.16;4989791;28;20039;-59
2022/08/16 01:58:17;;;;;;;22.10;19.67;;;;;;;18.92;100.00;165517.06;4991748;28;20033;-59
2022/08/16 02:00:43;;;;;;;23.30;19.38;;;;;;;18.89;100.00;165508.84;4989708;28;20046;-59
2022/08/16 02:03:09;;;;;;;22.73;20.25;;;;;;;18.82;100.00;165489.84;4991676;28;20033;-59
2022/08/16 02:05:34;;;;;;;24.08;19.17;;;;;;;18.76;100.00;165473.59;4989432;28;20038;-59
2022/08/16 02:08:00;;;;;;;23.00;20.17;;;;;;;18.70;100.00;165460.03;4991527;28;20022;-59
2022/08/16 02:10:26;;;;;;;22.83;19.92;;;;;;;18.60;100.00;165432.91;4989585;28;20555;-59
2022/08/16 02:12:52;;;;;;;24.45;21.95;;;;;;;18.48;100.00;165400.38;4991372;28;20026;-59
2022/08/16 02:15:22;;;;;;;26.35;20.77;;;;;;;18.37;100.00;165373.22;4990093;28;20038;-60
2022/08/16 02:17:47;;;;;;;24.85;21.67;;;;;;;18.28;100.00;165348.81;4991430;28;20052;-59
2022/08/16 02:20:14;;;;;;;25.17;22.38;;;;;;;18.15;100.00;165314.97;4989735;28;20065;-59
2022/08/16 02:22:39;;;;;;;24.80;20.30;;;;;;;18.05;100.00;165287.81;4991075;28;20022;-58
2022/08/16 02:25:10;;;;;;;23.15;20.67;;;;;;;17.98;100.00;165270.22;4989722;28;20046;-58
2022/08/16 02:27:35;;;;;;;22.48;19.48;;;;;;;17.92;100.00;165255.25;4991330;28;20490;-58
2022/08/16 02:30:01;;;;;;;24.67;22.05;;;;;;;17.95;100.00;165262.06;4989886;28;20051;-58
2022/08/16 02:32:26;;;;;;;23.13;19.33;;;;;;;17.94;100.00;165259.31;4990489;28;20470;-58
2022/08/16 02:34:52;;;;;;;23.60;20.30;;;;;;;17.95;100.00;165262.06;4989957;28;20104;-59
2022/08/16 02:37:17;;;;;;;33.78;20.27;;;;;;;17.98;100.00;165270.22;4991104;28;20034;-58
2022/08/16 02:39:43;;;;;;;24.58;20.10;;;;;;;18.00;100.00;165275.59;4988802;28;20038;-58
2022/08/16 02:42:09;;;;;;;21.25;18.85;;;;;;;18.02;100.00;165279.72;4991487;28;20069;-58
2022/08/16 02:44:35;;;;;;;47.65;23.40;;;;;;;18.03;100.00;165282.38;4989222;28;20042;-58
2022/08/16 02:47:00;;;;;;;23.77;20.98;;;;;;;18.04;100.00;165286.50;4990602;28;20055;-58
2022/08/16 02:49:26;;;;;;;23.42;20.92;;;;;;;18.05;100.00;165289.22;4989128;28;20038;-59
2022/08/16 02:51:51;;;;;;;23.67;20.60;;;;;;;18.08;100.00;165297.31;4990993;28;20034;-58
2022/08/16 02:54:16;;;;;;;21.48;19.35;;;;;;;18.07;100.00;165294.59;4989091;28;20449;-58
2022/08/16 02:56:42;;;;;;;22.30;19.90;;;;;;;18.06;100.00;165291.88;4990591;28;20029;-59
2022/08/16 02:59:07;;;;;;;23.73;18.95;;;;;;;18.05;100.00;165289.22;4989709;28;20034;-59
2022/08/16 03:01:33;;;;;;;24.05;21.55;;;;;;;17.96;100.00;165264.78;4990383;28;20026;-59
2022/08/16 03:04:00;;;;;;;23.80;21.25;;;;;;;17.90;100.00;165249.81;4989668;28;20029;-59
2022/08/16 03:06:26;;;;;;;26.02;20.02;;;;;;;17.85;100.00;165234.88;4992279;28;20046;-58
2022/08/16 03:08:52;;;;;;;28.95;20.48;;;;;;;17.80;100.00;165221.34;4994799;28;20092;-59
2022/08/16 03:11:18;;;;;;;22.65;19.75;;;;;;;17.74;100.00;165206.44;4992787;28;20043;-58
2022/08/16 03:13:45;;;;;;;24.00;21.23;;;;;;;17.68;100.00;165191.56;4993674;28;20033;-60
2022/08/16 03:16:11;;;;;;;24.17;21.25;;;;;;;17.62;100.00;165175.25;4992721;28;20129;-60
2022/08/16 03:18:37;;;;;;;22.52;20.20;;;;;;;17.58;100.00;165164.44;4993996;28;20105;-60
2022/08/16 03:21:03;;;;;;;32.35;23.83;;;;;;;17.56;100.00;165159.00;4992874;28;20520;-60
2022/08/16 03:23:28;;;;;;;21.42;19.42;;;;;;;17.47;100.00;165135.97;4994208;28;20033;-59
2022/08/16 03:25:54;;;;;;;22.33;19.27;;;;;;;17.37;100.00;165108.84;4992169;28;20541;-60
2022/08/16 03:28:19;;;;;;;23.50;21.20;;;;;;;17.38;100.00;165112.94;4994334;28;20033;-60
2022/08/16 03:30:45;;;;;;;19.15;17.25;;;;;;;17.40;100.00;165117.00;4991334;28;20049;-60
2022/08/16 03:33:11;;;;;;;23.65;18.48;;;;;;;17.42;100.00;165122.44;4993647;28;20057;-60
2022/08/16 03:35:38;;;;;;;25.17;20.00;;;;;;;17.46;100.00;165131.91;4992343;28;20489;-60
2022/08/16 03:38:06;;;;;;;22.02;19.42;;;;;;;17.49;100.00;165141.41;4994034;28;20034;-60
2022/08/16 03:40:33;;;;;;;20.87;18.10;;;;;;;17.49;100.00;165140.03;4992045;28;20069;-59
2022/08/16 03:42:59;;;;;;;19.98;17.92;;;;;;;17.47;100.00;165134.59;4994227;28;20109;-60
2022/08/16 03:45:25;;;;;;;21.23;19.13;;;;;;;17.40;100.00;165118.31;4992148;28;20046;-60
2022/08/16 03:47:51;;;;;;;21.10;18.42;;;;;;;17.39;100.00;165115.59;4993055;28;20034;-60
2022/08/16 03:50:16;;;;;;;27.95;19.10;;;;;;;17.40;100.00;165118.31;4992312;28;20046;-60
2022/08/16 03:52:42;;;;;;;19.60;17.52;;;;;;;17.41;100.00;165119.72;4993362;28;20026;-60
2022/08/16 03:55:09;;;;;;;26.05;19.35;;;;;;;17.44;100.00;165127.81;4991912;28;20092;-61
2022/08/16 03:57:35;;;;;;;20.77;18.63;;;;;;;17.48;100.00;165137.28;4993292;28;20030;-61
2022/08/16 04:00:11;;;;;;;21.40;17.10;;;;;;;17.48;100.00;165137.28;4992120;28;20120;-60
2022/08/16 04:02:36;;;;;;;19.17;17.17;;;;;;;17.46;100.00;165131.91;4993288;28;20058;-60
2022/08/16 04:05:02;;;;;;;29.02;17.70;;;;;;;17.42;100.00;165123.75;4991825;28;20043;-63
2022/08/16 04:07:28;;;;;;;17.20;15.55;;;;;;;17.38;100.00;165112.94;4993188;28;20393;-61
2022/08/16 04:09:53;;;;;;;21.98;19.25;;;;;;;17.34;100.00;165102.06;4991449;28;20039;-58
2022/08/16 04:12:18;;;;;;;20.65;16.77;;;;;;;17.29;100.00;165089.88;4993185;28;20047;-59
2022/08/16 04:14:44;;;;;;;21.95;17.77;;;;;;;17.29;100.00;165088.53;4991680;28;20045;-59
2022/08/16 04:17:10;;;;;;;19.17;17.08;;;;;;;17.28;100.00;165087.16;4992549;28;20030;-58
2022/08/16 04:19:35;;;;;;;21.00;18.52;;;;;;;17.24;100.00;165074.94;4991282;28;20045;-58
2022/08/16 04:22:01;;;;;;;20.58;18.58;;;;;;;17.19;100.00;165061.41;4992793;28;20029;-58
2022/08/16 04:24:26;;;;;;;21.02;18.90;;;;;;;17.13;100.00;165046.50;4991953;28;20038;-58
2022/08/16 04:26:51;;;;;;;24.95;22.35;;;;;;;17.06;100.00;165027.53;4993225;28;20525;-58
2022/08/16 04:29:17;;;;;;;20.80;17.38;;;;;;;16.99;100.00;165009.94;4990899;28;20046;-58
2022/08/16 04:31:42;;;;;;;25.45;19.95;;;;;;;16.92;100.00;164990.94;4992704;28;20065;-58
2022/08/16 04:34:08;;;;;;;24.67;20.00;;;;;;;16.88;100.00;164981.44;4991000;28;20034;-59
2022/08/16 04:36:34;;;;;;;20.73;18.58;;;;;;;16.85;100.00;164971.97;4992623;28;20042;-59
2022/08/16 04:39:00;;;;;;;19.85;17.95;;;;;;;16.86;100.00;164976.00;4990177;28;20018;-58
2022/08/16 04:41:30;;;;;;;21.63;18.67;;;;;;;16.88;100.00;164981.44;4992958;28;20014;-59
2022/08/16 04:43:55;;;;;;;21.77;19.23;;;;;;;16.90;100.00;164986.81;4991597;28;20105;-59
2022/08/16 04:46:21;;;;;;;21.70;19.58;;;;;;;16.88;100.00;164980.06;4992213;28;20037;-59
2022/08/16 04:48:46;;;;;;;19.45;17.55;;;;;;;16.86;100.00;164976.00;4992746;28;20026;-58
2022/08/16 04:51:11;;;;;;;22.83;18.23;;;;;;;16.85;100.00;164971.97;4991082;28;20062;-59
2022/08/16 04:53:37;;;;;;;24.98;18.33;;;;;;;16.84;100.00;164969.25;4992255;28;20022;-59
2022/08/16 04:56:03;;;;;;;21.77;19.70;;;;;;;16.84;100.00;164969.25;4991289;28;20038;-59
2022/08/16 04:58:30;;;;;;;20.63;18.52;;;;;;;16.85;100.00;164971.97;4991993;28;20666;-58
2022/08/16 05:00:56;;;;;;;19.13;17.08;;;;;;;16.87;100.00;164977.34;4990419;28;20065;-61
2022/08/16 05:03:21;;;;;;;20.80;17.52;;;;;;;16.89;100.00;164984.16;4987810;28;20665;-60
2022/08/16 05:05:48;;;;;;;20.73;18.50;;;;;;;16.92;100.00;164990.94;4990317;28;20030;-61
2022/08/16 05:08:13;;;;;;;22.02;19.75;;;;;;;16.94;100.00;164996.41;4991561;28;20105;-61
2022/08/16 05:10:39;;;;;;;20.98;18.42;;;;;;;16.98;100.00;165007.22;4990135;28;20038;-58
2022/08/16 05:13:06;;;;;;;19.40;17.52;;;;;;;17.06;100.00;165028.91;4991371;28;20026;-59
2022/08/16 05:15:32;;;;;;;19.58;17.23;;;;;;;17.13;100.00;165047.88;4987409;28;20118;-59
2022/08/16 05:17:58;;;;;;;20.00;17.65;;;;;;;17.22;100.00;165070.91;4991442;28;20505;-59
2022/08/16 05:20:23;;;;;;;19.27;17.38;;;;;;;17.31;100.00;165092.59;4990024;28;20046;-60
2022/08/16 05:22:49;;;;;;;21.63;18.92;;;;;;;17.37;100.00;165110.22;4991206;28;20073;-59
2022/08/16 05:25:15;;;;;;;21.05;18.77;;;;;;;17.44;100.00;165129.19;4990223;28;20100;-59
2022/08/16 05:27:41;;;;;;;22.25;19.92;;;;;;;17.54;100.00;165153.56;4991126;28;20036;-60
2022/08/16 05:30:08;;;;;;;27.13;19.17;;;;;;;17.62;100.00;165175.25;4988814;28;20038;-59
2022/08/16 05:32:34;;;;;;;19.77;17.83;;;;;;;17.68;100.00;165191.56;4990829;28;20081;-59
2022/08/16 05:35:00;;;;;;;20.25;18.27;;;;;;;17.79;100.00;165218.63;4989899;28;20129;-58
2022/08/16 05:37:25;;;;;;;19.95;17.42;;;;;;;17.89;100.00;165245.75;4991072;28;20034;-58
2022/08/16 05:39:51;;;;;;;18.55;16.38;;;;;;;17.96;100.00;165264.78;4990105;28;20084;-58
2022/08/16 05:42:16;;;;;;;19.45;17.50;;;;;;;18.05;100.00;165289.22;4990895;28;20428;-58
2022/08/16 05:44:42;;;;;;;17.00;15.38;;;;;;;18.14;100.00;165310.84;4989229;28;20056;-58
2022/08/16 05:47:07;;;;;;;17.85;15.32;;;;;;;18.22;100.00;165332.56;4991311;28;20022;-59
2022/08/16 05:49:33;;;;;;;21.75;18.48;;;;;;;18.33;100.00;165362.41;4989574;28;20038;-58
2022/08/16 05:51:58;;;;;;;20.55;16.45;;;;;;;18.45;100.00;165392.22;4990985;28;20081;-59
2022/08/16 05:54:26;;;;;;;23.00;17.92;;;;;;;18.51;100.00;165409.88;4989684;28;20217;-59
2022/08/16 05:56:53;;;;;;;20.00;17.10;;;;;;;18.60;100.00;165432.91;4988530;28;20487;-58
2022/08/16 05:59:18;;;;;;;21.15;16.60;;;;;;;18.66;100.00;165449.16;4989238;28;20049;-58
2022/08/16 06:01:44;;;;;;;19.05;15.45;;;;;;;18.75;100.00;165470.88;4991109;28;20014;-59
2022/08/16 06:04:11;;;;;;;19.77;17.05;;;;;;;18.86;100.00;165500.72;4990063;28;20097;-59
2022/08/16 06:06:37;;;;;;;20.65;16.63;;;;;;;18.91;100.00;165514.28;4991093;28;20030;-59
2022/08/16 06:09:03;;;;;;;27.27;15.50;;;;;;;19.01;100.00;165540.09;4989970;28;20467;-59
2022/08/16 06:11:28;;;;;;;15.43;13.98;;;;;;;19.11;100.00;165565.84;4991228;28;20030;-59
2022/08/16 06:13:54;;;;;;;21.27;16.95;;;;;;;19.19;100.00;165587.56;4991133;28;20026;-59
2022/08/16 06:16:20;;;;;;;20.35;16.45;;;;;;;19.27;100.00;165609.28;4989858;28;20414;-58
2022/08/16 06:18:46;;;;;;;22.30;16.00;;;;;;;19.37;100.00;165633.72;4991521;28;20022;-58
2022/08/16 06:21:12;;;;;;;16.30;14.68;;;;;;;19.46;100.00;165659.47;4990020;28;20042;-58
2022/08/16 06:23:37;;;;;;;18.35;16.38;;;;;;;19.57;100.00;165687.97;4989708;28;20030;-58
2022/08/16 06:26:04;;;;;;;18.63;15.18;;;;;;;19.59;100.00;165693.41;4989892;28;20043;-58
2022/08/16 06:28:30;;;;;;;18.58;15.35;;;;;;;19.72;100.00;165725.97;4991109;28;20026;-58
2022/08/16 06:30:55;;;;;;;17.08;15.13;;;;;;;19.86;100.00;165762.66;4989738;28;20092;-58
2022/08/16 06:33:21;;;;;;;18.25;16.45;;;;;;;19.97;100.00;165792.50;4991147;28;20485;-58
2022/08/16 06:35:48;;;;;;;19.23;16.30;;;;;;;20.07;100.00;165818.28;4986033;28;20046;-57
2022/08/16 06:38:13;;;;;;;19.42;16.00;;;;;;;20.14;100.00;165837.31;5001860;28;20026;-57
2022/08/16 06:40:38;;;;;;;19.35;15.70;;;;;;;20.27;100.00;165872.63;5010525;28;20112;-57
2022/08/16 06:43:04;;;;;;;18.05;16.25;;;;;;;20.40;100.00;165905.16;4999004;28;20019;-57
2022/08/16 06:45:29;;;;;;;25.55;16.20;;;;;;;20.51;100.00;165935.06;5005786;28;20429;-57
2022/08/16 06:47:55;;;;;;;19.67;15.60;;;;;;;20.57;100.00;165951.34;5014578;28;20030;-58
2022/08/16 06:50:21;;;;;;;17.23;15.50;;;;;;;20.71;100.00;165986.63;5011831;28;20041;-57
2022/08/16 06:52:46;;;;;;;17.88;15.93;;;;;;;20.78;100.00;166005.69;5013577;28;20034;-57
2022/08/16 06:55:14;;;;;;;24.15;15.25;;;;;;;20.85;100.00;166024.69;5013137;28;20572;-58
2022/08/16 06:57:40;;;;;;;17.40;15.50;;;;;;;20.98;100.00;166057.25;5014354;28;20028;-57
2022/08/16 07:00:11;;;;;;;15.90;14.27;;;;;;;21.14;100.00;166100.72;5012706;28;20041;-57
2022/08/16 07:02:37;;;;;;;20.83;14.82;;;;;;;21.14;100.00;166100.72;5014167;28;20052;-57
2022/08/16 07:05:05;;;;;;;18.70;15.52;;;;;;;-146.58;100.00;69501.63;5012789;28;20041;-57
2022/08/16 07:07:31;;;;;;;16.48;14.95;;;;;;;22.40;100.00;166432.28;5013577;28;20481;-57
2022/08/16 07:09:56;;;;;;;15.55;13.80;;;;;;;23.26;100.00;166657.94;5012849;28;20065;-57
2022/08/16 07:12:22;;;;;;;14.85;12.63;;;;;;;23.95;100.00;166840.16;5013886;28;20022;-57
2022/08/16 07:14:48;;;;;;;15.20;13.70;;;;;;;24.45;100.00;166972.09;5012279;28;20034;-57
2022/08/16 07:17:14;;;;;;;15.88;14.07;;;;;;;24.82;100.00;167068.75;5014228;28;20165;-57
2022/08/16 07:19:40;;;;;;;14.90;13.40;;;;;;;24.94;100.00;167100.03;5012347;28;20038;-58
2022/08/16 07:22:05;;;;;;;20.42;15.05;;;;;;;24.92;100.00;167095.91;5013702;28;20025;-57
2022/08/16 07:24:31;;;;;;;22.55;15.13;;;;;;;24.75;100.00;167049.69;5012148;28;20038;-57
2022/08/16 07:27:00;;;;;;;22.42;14.57;;;;;;;24.51;100.00;166987.06;5014096;28;20036;-57
2022/08/16 07:29:26;;;;;;;16.42;14.57;;;;;;;24.26;100.00;166921.75;5011870;28;20121;-57
2022/08/16 07:31:52;;;;;;;16.80;15.10;;;;;;;24.11;100.00;166882.34;5013944;28;20021;-58
2022/08/16 07:34:17;;;;;;;16.25;14.65;;;;;;;24.07;100.00;166872.84;5012244;28;20038;-57
2022/08/16 07:36:44;;;;;;;18.33;16.17;;;;;;;24.15;100.00;166891.88;5013172;28;20100;-57
2022/08/16 07:39:10;;;;;;;17.33;15.35;;;;;;;24.19;100.00;166902.72;5006414;28;20042;-57
2022/08/16 07:41:36;;;;;;;22.10;16.35;;;;;;;24.33;100.00;166940.81;5006053;28;20025;-57
2022/08/16 07:44:02;;;;;;;18.48;15.38;;;;;;;24.49;100.00;166981.59;5011703;28;20026;-57
2022/08/16 07:46:27;;;;;;;15.10;13.52;;;;;;;24.49;100.00;166981.59;4999797;28;20026;-57
2022/08/16 07:48:52;;;;;;;20.00;16.98;;;;;;;24.54;100.00;166995.19;4993599;28;20054;-57
2022/08/16 07:51:18;;;;;;;18.65;14.93;;;;;;;24.54;100.00;166995.19;4991019;28;20558;-57
2022/08/16 07:53:45;;;;;;;23.23;15.23;;;;;;;24.59;100.00;167008.84;4993096;28;20545;-57
2022/08/16 07:56:11;;;;;;;16.75;13.77;;;;;;;24.70;100.00;167038.78;4992455;28;20035;-57
2022/08/16 07:58:36;;;;;;;14.55;12.80;;;;;;;24.69;100.00;167036.06;4992840;28;20030;-57
2022/08/16 08:01:05;;;;;;;17.92;13.18;;;;;;;24.83;100.00;167071.47;4991171;28;20038;-57
2022/08/16 08:03:32;;;;;;;17.42;12.80;;;;;;;24.92;100.00;167095.91;4993517;28;20030;-57
2022/08/16 08:05:58;;;;;;;21.10;13.43;;;;;;;25.06;100.00;167131.34;4991864;28;20066;-57
2022/08/16 08:08:23;;;;;;;20.88;14.88;;;;;;;25.16;100.00;167158.50;4993414;28;20453;-57
2022/08/16 08:10:49;;;;;;;13.15;11.85;;;;;;;25.42;100.00;167226.63;4992072;28;20042;-57
2022/08/16 08:13:15;;;;;;;13.38;11.30;;;;;;;25.49;100.00;167245.69;4991521;28;20383;-57
2022/08/16 08:15:40;;;;;;;15.85;13.50;;;;;;;25.57;100.00;167267.47;4991840;28;20053;-57
2022/08/16 08:18:06;;;;;;;13.93;10.90;;;;;;;25.66;100.00;167291.91;4993426;28;20450;-57
2022/08/16 08:20:31;;;;;;;14.90;12.95;;;;;;;25.75;100.00;167313.69;4991282;28;20042;-57
2022/08/16 08:22:58;;;;;;;11.52;10.18;;;;;;;25.96;100.00;167370.84;4993194;28;20026;-57
2022/08/16 08:25:23;;;;;;;16.02;12.23;;;;;;;26.10;100.00;167407.69;4991559;28;20099;-58
2022/08/16 08:27:49;;;;;;;16.23;11.70;;;;;;;26.03;100.00;167387.19;4993169;28;20626;-57
2022/08/16 08:30:15;;;;;;;13.43;10.88;;;;;;;26.21;100.00;167436.25;4991656;28;20411;-57
2022/08/16 08:32:41;;;;;;;14.50;11.25;;;;;;;26.43;100.00;167493.44;4992601;28;20041;-57
2022/08/16 08:35:07;;;;;;;15.88;10.88;;;;;;;26.63;100.00;167545.16;4991169;28;20386;-57
2022/08/16 08:37:35;;;;;;;11.32;10.15;;;;;;;26.75;100.00;167577.88;4992830;28;20470;-57
2022/08/16 08:40:01;;;;;;;19.35;10.43;;;;;;;27.03;100.00;167651.44;4991318;28;20049;-57
2022/08/16 08:42:27;;;;;;;18.17;13.27;;;;;;;27.28;100.00;167716.81;4992325;28;20077;-58
2022/08/16 08:44:52;;;;;;;13.07;10.10;;;;;;;27.47;100.00;167767.28;4991621;28;20037;-57
2022/08/16 08:47:19;;;;;;;11.98;10.85;;;;;;;27.61;100.00;167804.00;4992751;28;20065;-57
2022/08/16 08:49:46;;;;;;;12.23;10.57;;;;;;;27.62;100.00;167806.75;4990907;28;20038;-58
2022/08/16 08:52:11;;;;;;;15.98;12.55;;;;;;;27.49;100.00;167774.06;4992608;28;20105;-57
2022/08/16 08:54:37;;;;;;;13.50;11.02;;;;;;;27.61;100.00;167804.00;4990986;28;20080;-58
2022/08/16 08:57:04;;;;;;;18.75;11.68;;;;;;;27.48;100.00;167771.34;4992612;28;20045;-57
2022/08/16 08:59:30;;;;;;;11.70;9.07;;;;;;;27.48;100.00;167771.34;4990996;28;20061;-58
2022/08/16 09:01:56;;;;;;;14.05;8.73;;;;;;;27.37;100.00;167741.28;4992670;28;20434;-57
2022/08/16 09:04:21;;;;;;;9.13;8.32;;;;;;;27.53;100.00;167784.94;4990459;28;20035;-58
2022/08/16 09:06:47;;;;;;;14.27;8.65;;;;;;;27.77;100.00;167846.28;4992582;28;20521;-57
2022/08/16 09:09:12;;;;;;;12.70;9.32;;;;;;;27.83;100.00;167863.94;4990974;28;20041;-57
2022/08/16 09:11:38;;;;;;;12.93;8.82;;;;;;;27.88;100.00;167876.22;4991691;28;20031;-58
2022/08/16 09:14:04;;;;;;;9.35;7.68;;;;;;;28.22;100.00;167964.81;4990781;28;20034;-58
2022/08/16 09:16:29;;;;;;;15.32;9.38;;;;;;;28.26;100.00;167975.75;4992102;28;20127;-58
2022/08/16 09:18:54;;;;;;;15.70;7.85;;;;;;;28.32;100.00;167992.09;4992208;28;20048;-58
2022/08/16 09:21:20;;;;;;;8.32;7.63;;;;;;;28.15;100.00;167948.47;4990417;28;20038;-58
2022/08/16 09:23:46;;;;;;;31.92;7.82;;;;;;;28.08;100.00;167929.41;4992386;28;20031;-58
2022/08/16 09:26:14;;;;;;;23.27;9.50;;;;;;;28.18;100.00;167956.63;4989994;28;20414;-58
2022/08/16 09:28:41;;;;;;;14.75;8.07;;;;;;;28.11;100.00;167937.56;4991504;28;20902;-58
2022/08/16 09:31:07;;;;;;;14.63;8.23;;;;;;;28.29;100.00;167983.91;4990448;28;20053;-58
2022/08/16 09:33:34;;;;;;;9.95;8.25;;;;;;;28.26;100.00;167975.75;4991801;28;20054;-57
2022/08/16 09:36:00;;;;;;;9.95;9.05;;;;;;;28.27;100.00;167978.44;4990121;28;20640;-57
2022/08/16 09:38:25;;;;;;;10.05;7.47;;;;;;;28.37;100.00;168005.72;4992110;28;20094;-58
2022/08/16 09:40:50;;;;;;;11.00;8.73;;;;;;;28.60;100.00;168065.66;4990411;28;20042;-58
2022/08/16 09:43:19;;;;;;;13.00;7.68;;;;;;;28.71;100.00;168095.66;4991785;28;20513;-58
2022/08/16 09:45:46;;;;;;;10.65;8.05;;;;;;;28.80;100.00;168120.22;4990171;28;20046;-57
2022/08/16 09:48:13;;;;;;;13.85;10.23;;;;;;;28.78;100.00;168113.41;4992079;28;20042;-58
2022/08/16 09:50:40;;;;;;;16.27;7.88;;;;;;;28.80;100.00;168118.88;4989787;28;20038;-57
2022/08/16 09:53:12;;;;;;;12.47;7.17;;;;;;;29.03;100.00;168180.19;4991594;28;20022;-58
2022/08/16 09:55:38;;;;;;;13.27;8.35;;;;;;;29.06;100.00;168188.38;4990075;28;20054;-58
2022/08/16 09:58:03;;;;;;;11.48;7.75;;;;;;;29.05;100.00;168184.25;4991698;28;20033;-58
2022/08/16 10:00:29;;;;;;;11.13;6.93;;;;;;;29.12;100.00;168204.72;4988561;28;20042;-57
2022/08/16 10:02:54;;;;;;;13.63;6.55;;;;;;;29.19;100.00;168222.41;5008705;28;20030;-57
2022/08/16 10:05:20;;;;;;;10.32;7.07;;;;;;;28.95;100.00;168159.75;5008839;28;20038;-58
2022/08/16 10:07:51;;;;;;;11.30;7.07;;;;;;;28.95;100.00;168158.38;4991727;28;20030;-58
2022/08/16 10:10:22;;;;;;;10.07;6.80;;;;;;;29.15;100.00;168210.19;4990313;28;20039;-57
2022/08/16 10:15:32;;;;;;;8.10;7.20;;;;;;;29.22;100.00;168229.28;4991158;28;20100;-58
2022/08/16 10:17:58;;;;;;;13.00;7.10;;;;;;;29.49;100.00;168300.19;4995342;28;20477;-57
2022/08/16 10:20:24;;;;;;;14.85;9.85;;;;;;;29.57;100.00;168322.00;4993277;28;20081;-58
2022/08/16 10:22:51;;;;;;;11.10;7.70;;;;;;;29.64;100.00;168341.09;4992733;28;20490;-58
2022/08/16 10:25:17;;;;;;;8.23;6.38;;;;;;;29.65;100.00;168343.84;4995338;28;20050;-57
2022/08/16 10:27:44;;;;;;;11.80;8.23;;;;;;;29.81;100.00;168386.06;4994076;28;20038;-58
2022/08/16 10:30:09;;;;;;;11.90;7.10;;;;;;;29.85;100.00;168397.03;4992255;28;20050;-57
2022/08/16 10:32:34;;;;;;;12.25;6.57;;;;;;;30.19;100.00;168485.69;4993829;28;20038;-58
2022/08/16 10:35:02;;;;;;;7.95;6.93;;;;;;;30.36;100.00;168532.03;4992465;28;20096;-58
2022/08/16 10:37:27;;;;;;;33.80;8.77;;;;;;;30.30;100.00;168515.66;4993596;28;20033;-58
2022/08/16 10:39:52;;;;;;;11.88;6.90;;;;;;;30.22;100.00;168495.25;4992923;28;20402;-58
2022/08/16 10:42:18;;;;;;;8.93;6.15;;;;;;;30.04;100.00;168447.53;4994333;28;20057;-58
2022/08/16 10:44:43;;;;;;;6.80;6.20;;;;;;;29.85;100.00;168395.63;4993301;28;20050;-57
2022/08/16 10:47:10;;;;;;;7.35;6.53;;;;;;;30.14;100.00;168473.41;4994389;28;20053;-58
2022/08/16 10:49:35;;;;;;;6.80;5.63;;;;;;;30.43;100.00;168548.38;4992650;28;20711;-57
2022/08/16 10:52:01;;;;;;;12.75;6.18;;;;;;;30.33;100.00;168523.88;4994603;28;20037;-58
2022/08/16 10:54:27;;;;;;;5.55;4.97;;;;;;;30.61;100.00;168597.56;4992931;28;20037;-58
2022/08/16 10:56:53;;;;;;;7.75;4.72;;;;;;;30.78;100.00;168642.56;4994112;28;20026;-57
2022/08/16 10:59:18;;;;;;;9.10;6.45;;;;;;;30.52;100.00;168573.00;4993157;28;20042;-57
2022/08/16 11:01:44;;;;;;;6.47;5.22;;;;;;;30.62;100.00;168598.91;4994056;28;20023;-57